createdAt,value
2017-04-29T00:00:12.661Z,9.62
2017-04-29T00:01:10.058Z,8.20
2017-04-29T00:02:08.094Z,7.78
2017-04-29T00:03:05.504Z,8.50
2017-04-29T00:04:03.319Z,6.65
2017-04-29T00:05:01.313Z,8.80
2017-04-29T00:05:58.703Z,6.72
2017-04-29T00:06:56.096Z,6.80
2017-04-29T00:07:53.484Z,6.60
2017-04-29T00:08:50.900Z,6.42
2017-04-29T00:09:48.311Z,7.45
2017-04-29T00:10:46.033Z,9.00
2017-04-29T00:11:43.785Z,8.27
2017-04-29T00:12:41.190Z,8.13
2017-04-29T00:13:39.145Z,8.80
2017-04-29T00:14:37.306Z,7.37
2017-04-29T00:15:35.109Z,6.93
2017-04-29T00:16:33.199Z,8.30
2017-04-29T00:17:31.166Z,12.88
2017-04-29T00:18:28.821Z,6.57
2017-04-29T00:19:26.466Z,7.47
2017-04-29T00:20:24.089Z,7.28
2017-04-29T00:21:21.735Z,9.35
2017-04-29T00:22:19.414Z,6.87
2017-04-29T00:23:16.814Z,7.48
2017-04-29T00:24:14.198Z,6.92
2017-04-29T00:25:11.706Z,8.70
2017-04-29T00:26:09.152Z,6.38
2017-04-29T00:27:06.902Z,9.17
2017-04-29T00:28:04.842Z,8.85
2017-04-29T00:29:02.249Z,5.67
2017-04-29T00:29:59.638Z,7.37
2017-04-29T00:30:57.031Z,5.98
2017-04-29T00:31:54.420Z,8.00
2017-04-29T00:32:52.073Z,6.08
2017-04-29T00:33:49.825Z,10.72
2017-04-29T00:34:47.257Z,6.13
2017-04-29T00:35:44.655Z,6.05
2017-04-29T00:36:42.425Z,6.40
2017-04-29T00:37:40.049Z,7.72
2017-04-29T00:38:37.468Z,6.08
2017-04-29T00:39:35.173Z,6.22
2017-04-29T00:40:33.648Z,7.63
2017-04-29T00:41:31.049Z,8.87
2017-04-29T00:42:28.443Z,7.32
2017-04-29T00:43:25.857Z,7.82
2017-04-29T00:44:23.561Z,6.35
2017-04-29T00:45:21.520Z,7.08
2017-04-29T00:46:19.287Z,6.18
2017-04-29T00:47:16.926Z,7.22
2017-04-29T00:48:14.329Z,9.10
2017-04-29T00:49:11.733Z,6.95
2017-04-29T00:50:09.464Z,7.23
2017-04-29T00:51:08.093Z,7.20
2017-04-29T00:52:05.509Z,6.55
2017-04-29T00:53:02.921Z,7.33
2017-04-29T00:54:00.584Z,6.42
2017-04-29T00:54:57.976Z,6.85
2017-04-29T00:55:55.380Z,7.22
2017-04-29T00:56:53.064Z,6.80
2017-04-29T00:57:54.121Z,6.83
2017-04-29T00:58:51.598Z,7.45
2017-04-29T00:59:49.006Z,7.70
2017-04-29T01:00:46.409Z,9.00
2017-04-29T01:01:44.209Z,7.88
2017-04-29T01:02:42.515Z,7.07
2017-04-29T01:03:40.217Z,6.23
2017-04-29T01:04:37.635Z,7.03
2017-04-29T01:05:35.325Z,6.52
2017-04-29T01:06:33.421Z,7.13
2017-04-29T01:07:30.810Z,7.98
2017-04-29T01:08:28.205Z,9.85
2017-04-29T01:09:26.096Z,6.15
2017-04-29T01:10:23.506Z,8.35
2017-04-29T01:11:20.897Z,7.70
2017-04-29T01:12:18.676Z,7.77
2017-04-29T01:13:16.080Z,7.45
2017-04-29T01:14:13.463Z,7.53
2017-04-29T01:15:11.145Z,7.25
2017-04-29T01:16:08.768Z,7.43
2017-04-29T01:17:06.587Z,7.92
2017-04-29T01:18:03.976Z,6.87
2017-04-29T01:19:01.752Z,7.03
2017-04-29T01:20:00.438Z,8.17
2017-04-29T01:20:58.149Z,8.72
2017-04-29T01:21:56.085Z,7.67
2017-04-29T01:22:54.042Z,7.08
2017-04-29T01:23:51.432Z,8.12
2017-04-29T01:24:48.840Z,13.52
2017-04-29T01:25:46.283Z,8.35
2017-04-29T01:26:43.981Z,7.15
2017-04-29T01:27:41.382Z,8.30
2017-04-29T01:28:38.844Z,7.22
2017-04-29T01:29:36.240Z,8.92
2017-04-29T01:30:33.661Z,8.93
2017-04-29T01:31:31.102Z,8.18
2017-04-29T01:32:29.033Z,8.25
2017-04-29T01:33:26.433Z,8.75
2017-04-29T01:34:24.093Z,9.47
2017-04-29T01:35:21.497Z,8.58
2017-04-29T01:36:19.132Z,9.92
2017-04-29T01:37:17.136Z,8.72
2017-04-29T01:38:15.174Z,8.72
2017-04-29T01:39:12.907Z,8.57
2017-04-29T01:40:10.316Z,8.45
2017-04-29T01:41:07.949Z,8.78
2017-04-29T01:42:05.637Z,7.75
2017-04-29T01:43:03.345Z,8.65
2017-04-29T01:44:01.264Z,17.43
2017-04-29T01:44:58.985Z,7.83
2017-04-29T01:45:56.405Z,8.33
2017-04-29T01:46:54.142Z,7.83
2017-04-29T01:47:51.537Z,8.67
2017-04-29T01:48:49.166Z,7.00
2017-04-29T01:49:47.466Z,9.72
2017-04-29T01:50:45.203Z,7.33
2017-04-29T01:51:42.608Z,12.03
2017-04-29T01:52:40.220Z,8.50
2017-04-29T01:53:37.624Z,9.90
2017-04-29T01:54:35.016Z,8.10
2017-04-29T01:55:32.697Z,9.23
2017-04-29T01:56:30.414Z,9.30
2017-04-29T01:57:27.894Z,8.42
2017-04-29T01:58:25.568Z,9.48
2017-04-29T01:59:23.285Z,7.32
2017-04-29T02:00:21.001Z,7.93
2017-04-29T02:01:19.338Z,7.75
2017-04-29T02:02:16.750Z,11.02
2017-04-29T02:03:14.165Z,9.70
2017-04-29T02:04:11.978Z,10.27
2017-04-29T02:05:09.383Z,7.87
2017-04-29T02:06:06.797Z,7.47
2017-04-29T02:07:05.217Z,7.75
2017-04-29T02:08:02.622Z,8.02
2017-04-29T02:09:00.263Z,7.62
2017-04-29T02:09:57.666Z,11.05
2017-04-29T02:10:55.146Z,8.37
2017-04-29T02:11:52.537Z,7.63
2017-04-29T02:12:50.230Z,9.25
2017-04-29T02:13:48.218Z,7.88
2017-04-29T02:14:45.637Z,8.23
2017-04-29T02:15:43.642Z,8.20
2017-04-29T02:16:41.337Z,8.28
2017-04-29T02:17:38.965Z,7.10
2017-04-29T02:18:36.673Z,8.55
2017-04-29T02:19:34.318Z,10.82
2017-04-29T02:20:32.160Z,8.05
2017-04-29T02:21:29.568Z,10.67
2017-04-29T02:22:26.981Z,8.30
2017-04-29T02:23:24.389Z,10.33
2017-04-29T02:24:22.857Z,8.00
2017-04-29T02:25:20.577Z,7.48
2017-04-29T02:26:17.957Z,8.10
2017-04-29T02:27:15.357Z,9.52
2017-04-29T02:28:12.774Z,10.23
2017-04-29T02:29:10.503Z,8.98
2017-04-29T02:30:08.530Z,7.75
2017-04-29T02:31:05.919Z,11.60
2017-04-29T02:32:03.387Z,9.27
2017-04-29T02:33:01.110Z,8.57
2017-04-29T02:33:58.756Z,7.08
2017-04-29T02:34:56.152Z,8.12
2017-04-29T02:35:53.857Z,8.10
2017-04-29T02:36:51.925Z,8.10
2017-04-29T02:37:49.325Z,10.22
2017-04-29T02:38:46.985Z,9.55
2017-04-29T02:39:44.356Z,9.62
2017-04-29T02:40:42.498Z,9.70
2017-04-29T02:41:40.171Z,8.85
2017-04-29T02:42:37.564Z,10.42
2017-04-29T02:43:35.577Z,7.82
2017-04-29T02:44:33.504Z,7.63
2017-04-29T02:45:30.899Z,8.80
2017-04-29T02:46:28.589Z,8.40
2017-04-29T02:47:26.277Z,8.40
2017-04-29T02:48:23.907Z,10.00
2017-04-29T02:49:21.304Z,7.52
2017-04-29T02:50:18.976Z,9.80
2017-04-29T02:51:16.385Z,9.47
2017-04-29T02:52:13.780Z,9.53
2017-04-29T02:53:11.727Z,10.85
2017-04-29T02:54:09.161Z,10.23
2017-04-29T02:55:06.549Z,10.20
2017-04-29T02:56:03.953Z,8.23
2017-04-29T02:57:01.739Z,12.82
2017-04-29T02:57:59.370Z,9.77
2017-04-29T02:58:57.440Z,9.05
2017-04-29T02:59:54.882Z,12.32
2017-04-29T03:00:52.557Z,10.05
2017-04-29T03:01:50.287Z,9.75
2017-04-29T03:02:47.713Z,9.43
2017-04-29T03:03:45.123Z,8.62
2017-04-29T03:04:42.796Z,9.70
2017-04-29T03:05:40.598Z,9.35
2017-04-29T03:06:38.229Z,9.48
2017-04-29T03:07:36.654Z,12.57
2017-04-29T03:08:34.048Z,9.78
2017-04-29T03:09:32.214Z,10.37
2017-04-29T03:10:29.903Z,10.73
2017-04-29T03:11:27.296Z,8.68
2017-04-29T03:12:25.052Z,10.78
2017-04-29T03:13:22.706Z,10.15
2017-04-29T03:14:20.358Z,12.45
2017-04-29T03:15:17.764Z,10.02
2017-04-29T03:16:15.800Z,8.93
2017-04-29T03:17:13.937Z,10.23
2017-04-29T03:18:11.970Z,11.48
2017-04-29T03:19:09.777Z,11.12
2017-04-29T03:20:07.429Z,12.12
2017-04-29T03:21:04.848Z,10.27
2017-04-29T03:22:02.781Z,12.17
2017-04-29T03:23:00.443Z,10.30
2017-04-29T03:23:57.854Z,14.68
2017-04-29T03:24:55.249Z,14.32
2017-04-29T03:25:52.954Z,9.82
2017-04-29T03:26:50.709Z,15.77
2017-04-29T03:27:48.631Z,11.28
2017-04-29T03:28:46.063Z,10.48
2017-04-29T03:29:43.856Z,10.10
2017-04-29T03:30:41.256Z,12.18
2017-04-29T03:31:38.943Z,10.40
2017-04-29T03:32:36.436Z,11.32
2017-04-29T03:33:34.122Z,10.50
2017-04-29T03:34:31.897Z,14.10
2017-04-29T03:35:29.309Z,11.35
2017-04-29T03:36:26.733Z,11.72
2017-04-29T03:37:24.141Z,11.80
2017-04-29T03:38:21.568Z,13.27
2017-04-29T03:39:19.640Z,10.17
2017-04-29T03:40:17.038Z,9.50
2017-04-29T03:41:14.429Z,10.92
2017-04-29T03:42:11.858Z,11.50
2017-04-29T03:43:09.291Z,11.65
2017-04-29T03:44:06.692Z,9.67
2017-04-29T03:45:04.716Z,8.67
2017-04-29T03:46:02.361Z,10.67
2017-04-29T03:46:59.766Z,9.43
2017-04-29T03:47:57.721Z,10.40
2017-04-29T03:48:55.112Z,8.85
2017-04-29T03:49:52.517Z,11.17
2017-04-29T03:50:50.221Z,9.00
2017-04-29T03:51:48.316Z,9.00
2017-04-29T03:52:45.957Z,9.93
2017-04-29T03:53:43.588Z,8.85
2017-04-29T03:54:41.232Z,10.73
2017-04-29T03:55:38.856Z,11.03
2017-04-29T03:56:36.808Z,13.22
2017-04-29T03:57:34.234Z,11.63
2017-04-29T03:58:31.880Z,9.17
2017-04-29T03:59:29.524Z,9.68
2017-04-29T04:00:27.188Z,7.97
2017-04-29T04:01:24.853Z,8.78
2017-04-29T04:02:22.528Z,11.50
2017-04-29T04:03:20.144Z,9.37
2017-04-29T04:04:17.794Z,10.60
2017-04-29T04:05:15.449Z,8.90
2017-04-29T04:06:13.266Z,8.87
2017-04-29T04:07:10.963Z,10.70
2017-04-29T04:08:08.647Z,9.60
2017-04-29T04:09:06.062Z,10.60
2017-04-29T04:10:03.471Z,11.07
2017-04-29T04:11:01.270Z,9.65
2017-04-29T04:11:58.674Z,10.28
2017-04-29T04:12:56.055Z,11.58
2017-04-29T04:13:54.097Z,7.43
2017-04-29T04:14:51.496Z,9.52
2017-04-29T04:15:49.210Z,10.82
2017-04-29T04:16:46.598Z,10.37
2017-04-29T04:17:44.857Z,7.53
2017-04-29T04:18:42.262Z,8.38
2017-04-29T04:19:40.189Z,9.00
2017-04-29T04:20:37.618Z,8.72
2017-04-29T04:21:35.263Z,9.73
2017-04-29T04:22:32.996Z,10.42
2017-04-29T04:23:30.900Z,7.83
2017-04-29T04:24:28.344Z,7.80
2017-04-29T04:25:26.018Z,9.47
2017-04-29T04:26:23.768Z,10.68
2017-04-29T04:27:21.197Z,9.12
2017-04-29T04:28:18.597Z,11.55
2017-04-29T04:29:16.050Z,9.15
2017-04-29T04:30:13.487Z,9.73
2017-04-29T04:31:11.416Z,7.33
2017-04-29T04:32:08.836Z,7.92
2017-04-29T04:33:06.251Z,7.75
2017-04-29T04:34:03.944Z,7.77
2017-04-29T04:35:01.997Z,9.50
2017-04-29T04:35:59.422Z,9.42
2017-04-29T04:36:57.130Z,8.38
2017-04-29T04:37:54.539Z,8.10
2017-04-29T04:38:51.944Z,6.75
2017-04-29T04:39:49.319Z,12.23
2017-04-29T04:40:46.723Z,10.22
2017-04-29T04:41:44.801Z,8.72
2017-04-29T04:42:42.489Z,7.98
2017-04-29T04:43:40.245Z,7.33
2017-04-29T04:44:37.646Z,8.03
2017-04-29T04:45:35.521Z,6.87
2017-04-29T04:46:33.356Z,7.55
2017-04-29T04:47:31.855Z,9.53
2017-04-29T04:48:29.524Z,9.80
2017-04-29T04:49:27.287Z,11.77
2017-04-29T04:50:25.701Z,13.58
2017-04-29T04:51:23.356Z,8.10
2017-04-29T04:52:21.132Z,8.40
2017-04-29T04:53:18.890Z,7.63
2017-04-29T04:54:16.571Z,8.13
2017-04-29T04:55:13.969Z,10.07
2017-04-29T04:56:11.757Z,6.87
2017-04-29T04:57:09.156Z,10.02
2017-04-29T04:58:06.549Z,10.25
2017-04-29T04:59:03.917Z,6.20
2017-04-29T05:00:01.589Z,9.08
2017-04-29T05:00:59.008Z,6.60
2017-04-29T05:01:56.412Z,6.57
2017-04-29T05:02:54.527Z,6.90
2017-04-29T05:03:51.947Z,5.83
2017-04-29T05:04:50.025Z,10.20
2017-04-29T05:05:47.691Z,6.68
2017-04-29T05:06:45.485Z,7.47
2017-04-29T05:07:43.481Z,6.97
2017-04-29T05:08:40.889Z,6.53
2017-04-29T05:09:38.293Z,8.32
2017-04-29T05:10:36.021Z,8.62
2017-04-29T05:11:33.700Z,8.73
2017-04-29T05:12:31.440Z,7.68
2017-04-29T05:13:28.858Z,8.20
2017-04-29T05:14:26.274Z,10.10
2017-04-29T05:15:23.694Z,9.18
2017-04-29T05:16:21.110Z,7.95
2017-04-29T05:17:18.793Z,5.53
2017-04-29T05:18:16.432Z,6.80
2017-04-29T05:19:14.069Z,5.40
2017-04-29T05:20:12.009Z,7.18
2017-04-29T05:21:09.641Z,6.58
2017-04-29T05:22:07.307Z,6.77
2017-04-29T05:23:05.220Z,6.92
2017-04-29T05:24:03.305Z,5.08
2017-04-29T05:25:00.722Z,6.33
2017-04-29T05:25:58.130Z,6.50
2017-04-29T05:26:55.518Z,4.95
2017-04-29T05:27:53.900Z,6.05
2017-04-29T05:28:51.900Z,6.03
2017-04-29T05:29:49.284Z,9.55
2017-04-29T05:30:47.059Z,7.12
2017-04-29T05:31:44.814Z,6.85
2017-04-29T05:32:42.246Z,7.40
2017-04-29T05:33:40.223Z,7.58
2017-04-29T05:34:38.173Z,9.20
2017-04-29T05:35:35.589Z,9.17
2017-04-29T05:36:33.328Z,5.70
2017-04-29T05:37:30.748Z,9.98
2017-04-29T05:38:28.516Z,8.80
2017-04-29T05:39:25.921Z,8.88
2017-04-29T05:40:23.579Z,9.08
2017-04-29T05:41:21.205Z,6.77
2017-04-29T05:42:18.608Z,8.40
2017-04-29T05:43:16.012Z,5.93
2017-04-29T05:44:13.792Z,10.22
2017-04-29T05:45:11.656Z,8.63
2017-04-29T05:46:09.670Z,9.48
2017-04-29T05:47:07.068Z,5.30
2017-04-29T05:48:04.477Z,7.48
2017-04-29T05:49:01.890Z,8.82
2017-04-29T05:49:59.268Z,9.02
2017-04-29T05:50:57.033Z,5.73
2017-04-29T05:51:54.704Z,5.65
2017-04-29T05:52:52.354Z,7.55
2017-04-29T05:53:50.022Z,6.05
2017-04-29T05:54:47.421Z,7.87
2017-04-29T05:55:44.812Z,5.47
2017-04-29T05:56:42.201Z,6.73
2017-04-29T05:57:39.889Z,7.07
2017-04-29T05:58:37.641Z,9.03
2017-04-29T05:59:35.790Z,7.53
2017-04-29T06:00:33.190Z,8.67
2017-04-29T06:01:30.593Z,5.27
2017-04-29T06:02:27.997Z,7.23
2017-04-29T06:03:25.691Z,6.02
2017-04-29T06:04:23.081Z,9.20
2017-04-29T06:05:20.496Z,7.68
2017-04-29T06:06:18.850Z,5.58
2017-04-29T06:07:16.261Z,6.58
2017-04-29T06:08:13.978Z,6.28
2017-04-29T06:09:11.897Z,6.02
2017-04-29T06:10:09.628Z,7.62
2017-04-29T06:11:07.503Z,4.92
2017-04-29T06:12:04.910Z,10.23
2017-04-29T06:13:02.713Z,7.77
2017-04-29T06:14:00.509Z,7.77
2017-04-29T06:14:58.466Z,5.95
2017-04-29T06:15:56.528Z,9.00
2017-04-29T06:16:54.275Z,8.00
2017-04-29T06:17:51.688Z,6.35
2017-04-29T06:18:49.821Z,6.55
2017-04-29T06:19:47.582Z,6.43
2017-04-29T06:20:46.516Z,5.40
2017-04-29T06:21:44.245Z,6.93
2017-04-29T06:22:42.026Z,9.33
2017-04-29T06:23:40.688Z,7.25
2017-04-29T06:24:38.470Z,6.45
2017-04-29T06:25:36.120Z,5.83
2017-04-29T06:26:33.803Z,8.10
2017-04-29T06:27:31.601Z,6.52
2017-04-29T06:28:29.028Z,4.98
2017-04-29T06:29:26.999Z,7.45
2017-04-29T06:30:25.557Z,7.95
2017-04-29T06:31:23.013Z,6.48
2017-04-29T06:32:20.975Z,6.00
2017-04-29T06:33:18.626Z,7.68
2017-04-29T06:34:16.369Z,5.10
2017-04-29T06:35:13.807Z,6.93
2017-04-29T06:36:11.552Z,9.08
2017-04-29T06:37:08.993Z,7.42
2017-04-29T06:38:06.721Z,4.72
2017-04-29T06:39:04.500Z,7.20
2017-04-29T06:40:01.914Z,6.60
2017-04-29T06:40:59.314Z,7.55
2017-04-29T06:41:57.260Z,5.97
2017-04-29T06:42:54.657Z,6.23
2017-04-29T06:43:52.590Z,5.45
2017-04-29T06:44:50.015Z,7.80
2017-04-29T06:45:47.647Z,8.28
2017-04-29T06:46:45.736Z,4.30
2017-04-29T06:47:44.078Z,6.13
2017-04-29T06:48:41.505Z,8.33
2017-04-29T06:49:39.428Z,4.58
2017-04-29T06:50:37.088Z,6.47
2017-04-29T06:51:34.531Z,5.77
2017-04-29T06:52:31.937Z,11.28
2017-04-29T06:53:30.086Z,6.83
2017-04-29T06:54:27.729Z,5.15
2017-04-29T06:55:25.832Z,4.23
2017-04-29T06:56:23.241Z,4.47
2017-04-29T06:57:20.886Z,4.87
2017-04-29T06:58:18.538Z,5.55
2017-04-29T06:59:16.317Z,5.62
2017-04-29T07:00:14.057Z,5.07
2017-04-29T07:01:12.031Z,5.52
2017-04-29T07:02:09.716Z,6.78
2017-04-29T07:03:07.148Z,4.37
2017-04-29T07:04:04.550Z,8.58
2017-04-29T07:05:02.300Z,5.17
2017-04-29T07:05:59.927Z,4.93
2017-04-29T07:06:57.856Z,6.30
2017-04-29T07:07:55.248Z,4.57
2017-04-29T07:08:53.049Z,4.42
2017-04-29T07:09:50.460Z,6.45
2017-04-29T07:10:48.106Z,6.28
2017-04-29T07:11:45.502Z,4.57
2017-04-29T07:12:43.213Z,6.38
2017-04-29T07:13:41.056Z,4.40
2017-04-29T07:14:39.831Z,5.87
2017-04-29T07:15:37.909Z,6.55
2017-04-29T07:16:35.657Z,5.47
2017-04-29T07:17:33.070Z,5.05
2017-04-29T07:18:30.780Z,5.78
2017-04-29T07:19:28.614Z,5.60
2017-04-29T07:20:26.050Z,7.78
2017-04-29T07:22:38.826Z,6.78
2017-04-29T07:23:36.810Z,4.10
2017-04-29T07:24:34.595Z,6.23
2017-04-29T07:25:32.706Z,5.90
2017-04-29T07:26:30.117Z,5.67
2017-04-29T07:27:27.541Z,4.90
2017-04-29T07:28:25.336Z,5.37
2017-04-29T07:29:23.030Z,3.95
2017-04-29T07:30:21.487Z,5.03
2017-04-29T07:31:19.531Z,4.77
2017-04-29T07:32:16.958Z,6.47
2017-04-29T07:33:14.747Z,6.82
2017-04-29T07:34:12.163Z,5.50
2017-04-29T07:35:10.113Z,5.40
2017-04-29T07:36:07.517Z,4.75
2017-04-29T07:37:04.929Z,6.42
2017-04-29T07:38:02.311Z,5.73
2017-04-29T07:38:59.990Z,5.75
2017-04-29T07:39:57.652Z,4.70
2017-04-29T07:40:55.334Z,4.13
2017-04-29T07:41:52.752Z,5.05
2017-04-29T07:42:50.411Z,5.32
2017-04-29T07:43:47.832Z,3.60
2017-04-29T07:44:45.228Z,5.77
2017-04-29T07:45:42.641Z,5.07
2017-04-29T07:46:40.629Z,4.90
2017-04-29T07:47:38.449Z,7.12
2017-04-29T07:48:35.900Z,7.02
2017-04-29T07:49:33.580Z,6.73
2017-04-29T07:50:30.985Z,4.28
2017-04-29T07:51:28.661Z,4.78
2017-04-29T07:52:26.379Z,6.30
2017-04-29T07:53:23.819Z,5.57
2017-04-29T07:54:21.229Z,5.57
2017-04-29T07:55:19.041Z,3.72
2017-04-29T07:56:16.814Z,6.05
2017-04-29T07:57:14.753Z,5.12
2017-04-29T07:58:12.505Z,3.28
2017-04-29T07:59:10.942Z,4.62
2017-04-29T08:00:08.362Z,3.53
2017-04-29T08:01:06.904Z,3.57
2017-04-29T08:02:04.652Z,4.40
2017-04-29T08:03:02.799Z,5.13
2017-04-29T08:04:00.508Z,3.08
2017-04-29T08:04:58.543Z,3.22
2017-04-29T08:05:56.573Z,3.15
2017-04-29T08:06:53.986Z,6.53
2017-04-29T08:07:51.409Z,4.98
2017-04-29T08:08:48.825Z,7.83
2017-04-29T08:09:46.508Z,3.88
2017-04-29T08:10:43.897Z,5.07
2017-04-29T08:11:41.302Z,6.42
2017-04-29T08:12:38.813Z,3.17
2017-04-29T08:13:36.221Z,5.50
2017-04-29T08:14:33.626Z,4.15
2017-04-29T08:15:31.689Z,3.72
2017-04-29T08:16:29.085Z,6.95
2017-04-29T08:17:26.501Z,5.20
2017-04-29T08:18:24.160Z,4.38
2017-04-29T08:19:21.928Z,6.47
2017-04-29T08:20:19.328Z,5.72
2017-04-29T08:21:16.996Z,7.13
2017-04-29T08:22:14.410Z,6.62
2017-04-29T08:23:12.181Z,3.68
2017-04-29T08:24:09.594Z,3.38
2017-04-29T08:25:07.382Z,5.15
2017-04-29T08:26:05.020Z,5.57
2017-04-29T08:27:02.742Z,5.35
2017-04-29T08:28:00.535Z,4.85
2017-04-29T08:28:58.182Z,5.95
2017-04-29T08:29:55.610Z,6.65
2017-04-29T08:30:53.024Z,3.08
2017-04-29T08:31:50.428Z,8.85
2017-04-29T08:32:48.132Z,3.87
2017-04-29T08:33:45.914Z,9.12
2017-04-29T08:34:43.342Z,3.28
2017-04-29T08:35:41.016Z,2.70
2017-04-29T08:36:38.769Z,3.53
2017-04-29T08:37:36.161Z,3.10
2017-04-29T08:38:34.421Z,5.47
2017-04-29T08:39:31.834Z,4.48
2017-04-29T08:40:29.241Z,3.53
2017-04-29T08:41:27.154Z,5.83
2017-04-29T08:42:25.541Z,3.50
2017-04-29T08:43:22.941Z,5.30
2017-04-29T08:44:20.642Z,4.92
2017-04-29T08:45:18.048Z,5.13
2017-04-29T08:46:15.767Z,7.55
2017-04-29T08:47:13.174Z,5.95
2017-04-29T08:48:10.563Z,6.58
2017-04-29T08:49:08.213Z,5.52
2017-04-29T08:50:05.915Z,8.68
2017-04-29T08:51:03.353Z,5.25
2017-04-29T08:52:00.769Z,5.32
2017-04-29T08:52:58.189Z,6.23
2017-04-29T08:53:55.602Z,6.58
2017-04-29T08:54:53.381Z,5.65
2017-04-29T08:55:51.101Z,4.63
2017-04-29T08:56:48.503Z,7.45
2017-04-29T08:57:46.137Z,3.78
2017-04-29T08:58:44.240Z,6.98
2017-04-29T08:59:41.646Z,6.83
2017-04-29T09:00:39.058Z,7.10
2017-04-29T09:01:37.112Z,3.88
2017-04-29T09:02:35.706Z,5.63
2017-04-29T09:03:33.513Z,3.67
2017-04-29T09:04:30.912Z,3.25
2017-04-29T09:05:28.314Z,4.25
2017-04-29T09:06:25.972Z,4.87
2017-04-29T09:07:23.672Z,6.08
2017-04-29T09:08:21.479Z,4.18
2017-04-29T09:09:19.221Z,3.57
2017-04-29T09:10:16.893Z,4.85
2017-04-29T09:11:14.316Z,4.13
2017-04-29T09:12:12.242Z,3.70
2017-04-29T09:13:10.375Z,4.50
2017-04-29T09:14:07.805Z,6.23
2017-04-29T09:15:05.226Z,3.78
2017-04-29T09:16:02.926Z,5.90
2017-04-29T09:17:00.325Z,6.30
2017-04-29T09:17:57.757Z,7.47
2017-04-29T09:18:55.722Z,3.40
2017-04-29T09:19:53.195Z,5.47
2017-04-29T09:20:50.602Z,4.02
2017-04-29T09:21:48.428Z,3.47
2017-04-29T09:22:46.242Z,3.83
2017-04-29T09:23:44.280Z,3.73
2017-04-29T09:24:41.971Z,2.42
2017-04-29T09:25:39.377Z,5.00
2017-04-29T09:26:36.776Z,4.25
2017-04-29T09:27:34.200Z,5.17
2017-04-29T09:28:31.618Z,4.78
2017-04-29T09:29:29.020Z,2.92
2017-04-29T09:30:26.758Z,5.25
2017-04-29T09:31:24.503Z,2.52
2017-04-29T09:32:21.913Z,2.52
2017-04-29T09:33:19.311Z,4.73
2017-04-29T09:34:17.531Z,4.20
2017-04-29T09:35:14.967Z,7.98
2017-04-29T09:36:12.660Z,2.75
2017-04-29T09:37:10.074Z,2.55
2017-04-29T09:38:07.503Z,5.05
2017-04-29T09:39:05.081Z,5.27
2017-04-29T09:40:02.848Z,2.43
2017-04-29T09:42:04.035Z,2.27
2017-04-29T09:43:01.743Z,7.10
2017-04-29T09:43:59.161Z,3.30
2017-04-29T09:44:56.567Z,3.52
2017-04-29T09:45:53.973Z,3.68
2017-04-29T09:46:51.378Z,3.82
2017-04-29T09:47:49.515Z,2.98
2017-04-29T09:48:46.914Z,5.02
2017-04-29T09:49:44.679Z,6.13
2017-04-29T09:50:42.093Z,3.35
2017-04-29T09:51:39.500Z,3.57
2017-04-29T09:52:38.129Z,2.72
2017-04-29T09:53:36.917Z,3.20
2017-04-29T09:54:34.323Z,2.58
2017-04-29T09:55:32.126Z,3.88
2017-04-29T09:56:29.520Z,2.40
2017-04-29T09:57:26.930Z,2.50
2017-04-29T09:58:24.955Z,4.48
2017-04-29T09:59:22.645Z,2.60
2017-04-29T10:00:20.333Z,2.38
2017-04-29T10:01:18.979Z,2.48
2017-04-29T10:02:16.699Z,6.58
2017-04-29T10:03:14.101Z,2.55
2017-04-29T10:04:11.501Z,4.28
2017-04-29T10:05:09.459Z,2.43
2017-04-29T10:06:06.876Z,2.03
2017-04-29T10:07:04.317Z,2.95
2017-04-29T10:08:02.502Z,4.65
2017-04-29T10:08:59.898Z,2.97
2017-04-29T10:09:57.312Z,2.83
2017-04-29T10:10:55.041Z,4.60
2017-04-29T10:11:52.445Z,2.55
2017-04-29T10:12:49.864Z,2.57
2017-04-29T10:13:47.624Z,3.65
2017-04-29T10:14:45.876Z,3.27
2017-04-29T10:15:43.281Z,3.32
2017-04-29T10:16:41.852Z,3.77
2017-04-29T10:17:39.261Z,8.92
2017-04-29T10:18:37.020Z,3.27
2017-04-29T10:19:35.136Z,4.67
2017-04-29T10:20:32.857Z,4.90
2017-04-29T10:21:30.261Z,3.05
2017-04-29T10:22:28.619Z,4.55
2017-04-29T10:23:26.606Z,2.88
2017-04-29T10:24:24.253Z,2.15
2017-04-29T10:25:21.909Z,2.67
2017-04-29T10:26:19.717Z,1.93
2017-04-29T10:27:17.611Z,3.98
2017-04-29T10:28:15.342Z,3.23
2017-04-29T10:29:12.774Z,5.02
2017-04-29T10:30:10.192Z,4.23
2017-04-29T10:31:07.638Z,2.85
2017-04-29T10:32:05.033Z,2.27
2017-04-29T10:33:02.788Z,3.65
2017-04-29T10:34:00.766Z,3.82
2017-04-29T10:34:58.201Z,3.80
2017-04-29T10:35:55.613Z,4.43
2017-04-29T10:36:53.395Z,4.88
2017-04-29T10:37:50.807Z,3.43
2017-04-29T10:38:48.214Z,4.03
2017-04-29T10:39:46.224Z,3.67
2017-04-29T10:40:44.294Z,4.75
2017-04-29T10:41:43.485Z,3.32
2017-04-29T10:42:40.905Z,2.65
2017-04-29T10:43:38.305Z,3.98
2017-04-29T10:44:35.717Z,3.93
2017-04-29T10:45:33.766Z,3.22
2017-04-29T10:46:31.463Z,2.38
2017-04-29T10:47:29.148Z,2.87
2017-04-29T10:48:26.556Z,3.25
2017-04-29T10:49:24.368Z,3.12
2017-04-29T10:50:22.001Z,4.17
2017-04-29T10:51:20.038Z,3.58
2017-04-29T10:52:17.707Z,6.30
2017-04-29T10:53:15.107Z,4.43
2017-04-29T10:54:12.798Z,2.93
2017-04-29T10:55:10.505Z,2.40
2017-04-29T10:56:09.142Z,2.88
2017-04-29T10:57:06.833Z,2.62
2017-04-29T10:58:04.649Z,5.63
2017-04-29T10:59:02.049Z,2.55
2017-04-29T10:59:59.451Z,3.22
2017-04-29T11:00:56.885Z,2.88
2017-04-29T11:01:54.335Z,2.15
2017-04-29T11:02:52.394Z,4.93
2017-04-29T11:03:50.118Z,2.70
2017-04-29T11:04:47.820Z,2.45
2017-04-29T11:05:45.260Z,4.02
2017-04-29T11:06:42.924Z,3.42
2017-04-29T11:07:40.374Z,4.02
2017-04-29T11:08:38.144Z,1.98
2017-04-29T11:09:35.553Z,5.77
2017-04-29T11:10:32.953Z,5.07
2017-04-29T11:11:30.356Z,2.32
2017-04-29T11:12:27.768Z,2.63
2017-04-29T11:13:25.486Z,3.78
2017-04-29T11:14:23.490Z,2.00
2017-04-29T11:15:21.136Z,1.83
2017-04-29T11:16:18.553Z,3.43
2017-04-29T11:17:16.375Z,2.90
2017-04-29T11:18:14.028Z,2.07
2017-04-29T11:19:11.430Z,3.97
2017-04-29T11:20:09.104Z,3.45
2017-04-29T11:21:06.909Z,3.83
2017-04-29T11:22:04.316Z,2.27
2017-04-29T11:23:02.013Z,2.22
2017-04-29T11:23:59.888Z,5.98
2017-04-29T11:24:57.291Z,1.72
2017-04-29T11:25:54.961Z,3.32
2017-04-29T11:26:52.413Z,2.38
2017-04-29T11:27:49.818Z,2.47
2017-04-29T11:28:47.543Z,1.80
2017-04-29T11:29:44.949Z,1.82
2017-04-29T11:30:42.823Z,3.10
2017-04-29T11:31:41.228Z,2.18
2017-04-29T11:32:38.670Z,2.08
2017-04-29T11:33:36.103Z,5.18
2017-04-29T11:34:33.516Z,3.28
2017-04-29T11:35:31.197Z,3.87
2017-04-29T11:36:29.087Z,3.18
2017-04-29T11:37:27.639Z,3.62
2017-04-29T11:38:25.045Z,2.07
2017-04-29T11:39:22.818Z,1.95
2017-04-29T11:40:21.679Z,2.03
2017-04-29T11:41:19.233Z,3.07
2017-04-29T11:42:16.660Z,1.90
2017-04-29T11:43:14.361Z,1.87
2017-04-29T11:44:12.034Z,1.65
2017-04-29T11:45:09.957Z,2.72
2017-04-29T11:46:07.659Z,3.18
2017-04-29T11:47:05.127Z,2.28
2017-04-29T11:48:02.889Z,2.95
2017-04-29T11:49:01.557Z,2.35
2017-04-29T11:49:58.982Z,3.50
2017-04-29T11:50:56.432Z,1.98
2017-04-29T11:51:54.517Z,3.18
2017-04-29T11:52:52.198Z,2.52
2017-04-29T11:53:49.625Z,2.88
2017-04-29T11:54:47.853Z,2.08
2017-04-29T11:55:45.293Z,1.80
2017-04-29T11:56:42.979Z,4.17
2017-04-29T11:57:40.710Z,2.55
2017-04-29T11:58:38.138Z,2.87
2017-04-29T11:59:35.916Z,1.70
2017-04-29T12:00:33.624Z,1.97
2017-04-29T12:01:31.261Z,2.75
2017-04-29T12:02:28.671Z,2.32
2017-04-29T12:03:26.103Z,1.43
2017-04-29T12:04:23.808Z,2.10
2017-04-29T12:05:21.212Z,2.35
2017-04-29T12:06:19.261Z,2.38
2017-04-29T12:07:16.915Z,2.85
2017-04-29T12:08:14.322Z,2.62
2017-04-29T12:09:11.769Z,2.05
2017-04-29T12:10:09.185Z,2.35
2017-04-29T12:11:06.603Z,2.15
2017-04-29T12:12:04.326Z,2.15
2017-04-29T12:13:02.096Z,2.28
2017-04-29T12:13:59.505Z,3.20
2017-04-29T12:14:56.908Z,2.52
2017-04-29T12:15:54.291Z,2.70
2017-04-29T12:16:52.045Z,2.18
2017-04-29T12:17:49.752Z,2.50
2017-04-29T12:18:47.161Z,1.85
2017-04-29T12:19:45.036Z,2.23
2017-04-29T12:20:42.445Z,3.03
2017-04-29T12:21:39.853Z,3.68
2017-04-29T12:22:37.668Z,1.87
2017-04-29T12:23:35.353Z,2.32
2017-04-29T12:24:32.743Z,2.35
2017-04-29T12:25:30.177Z,1.80
2017-04-29T12:26:27.828Z,2.13
2017-04-29T12:27:25.239Z,2.13
2017-04-29T12:28:22.658Z,1.93
2017-04-29T12:29:20.626Z,3.07
2017-04-29T12:30:18.032Z,1.87
2017-04-29T12:31:15.447Z,3.85
2017-04-29T12:32:13.305Z,2.07
2017-04-29T12:33:10.981Z,2.77
2017-04-29T12:34:09.086Z,2.37
2017-04-29T12:35:07.045Z,3.33
2017-04-29T12:36:04.472Z,1.95
2017-04-29T12:37:01.877Z,2.98
2017-04-29T12:37:59.277Z,4.43
2017-04-29T12:38:56.686Z,1.80
2017-04-29T12:39:54.096Z,3.20
2017-04-29T12:40:51.806Z,3.15
2017-04-29T12:41:49.213Z,1.40
2017-04-29T12:42:46.607Z,3.45
2017-04-29T12:43:44.374Z,1.60
2017-04-29T12:44:41.797Z,1.85
2017-04-29T12:45:40.518Z,2.12
2017-04-29T12:46:46.285Z,3.63